Latest Weather Observations for Loxton

IDS60801

Issued at 9:05 am CDT Tuesday 25 November 2014 (issued every 30 minutes, with the page automatically refreshed every 10 minutes)

About weather observations | Map of weather stations | Latest weather observations for SA | Other Formats
Station Details ID: 024024 Name: LOXTON RESEARCH CENTRE Lat: -34.44 Lon: 140.60 Height: 30.1 m
Data from the previous 72 hours. | See also: Recent months at Loxton
Date/Time
CDT
Temp
°C
App
Temp
°C
Dew
Point
Rel
Hum
%
Delta-T
°C
Wind Press
QNH
hPa
Press
MSL
hPa
Rain
since 9 am
mm
Dir
 
Spd
km/h
Gust
km/h
Spd
kts
Gust
kts
25/09:00am 16.6 13.6 7.6 55 4.5 SSW 13 19 7 10 1022.8 1022.7 0.0
25/08:30am 15.7 12.6 7.2 57 4.2 SW 13 19 7 10 1022.8 1022.7 0.0
25/08:00am 14.7 11.9 7.1 60 3.7 W 11 19 6 10 1022.5 1022.4 0.0
25/07:30am 13.0 10.2 7.0 67 2.9 W 11 15 6 8 1022.2 1022.1 0.0
25/07:00am 11.2 8.7 6.5 73 2.2 W 9 13 5 7 1021.9 1021.8 0.0
25/06:30am 10.2 7.7 6.6 78 1.7 WNW 9 11 5 6 1021.5 1021.4 0.0
25/06:00am 9.6 7.1 6.6 81 1.4 WNW 9 13 5 7 1021.1 1021.0 0.0
25/05:30am 9.6 7.2 6.8 83 1.3 WNW 9 13 5 7 1020.7 1020.6 0.0
25/05:00am 10.0 7.2 7.0 81 1.4 WNW 11 13 6 7 1020.4 1020.3 0.0
25/04:30am 9.7 7.3 6.9 83 1.3 W 9 11 5 6 1020.0 1019.9 0.0
25/04:00am 9.8 7.8 7.0 83 1.3 W 7 11 4 6 1020.0 1019.9 0.0
25/03:30am 9.8 7.4 7.0 83 1.3 WNW 9 13 5 7 1019.8 1019.7 0.0
25/03:00am 8.3 7.4 6.1 86 1.0 CALM 0 0 0 0 1019.7 1019.6 0.0
25/02:30am 8.5 7.3 6.5 87 0.9 W 2 6 1 3 1019.7 1019.6 0.0
25/02:00am 9.2 7.3 6.8 85 1.1 W 6 7 3 4 1019.7 1019.6 0.0
25/01:30am 10.3 8.2 6.7 78 1.7 W 7 9 4 5 1019.8 1019.7 0.0
25/01:00am 10.4 8.4 6.3 76 1.9 WSW 6 7 3 4 1019.6 1019.5 0.0
25/12:30am 12.0 9.9 6.5 69 2.6 WSW 7 9 4 5 1019.6 1019.5 0.0
25/12:00am 12.8 10.2 6.0 63 3.2 SW 9 11 5 6 1019.5 1019.4 0.0
 
Date/Time
CDT
Temp
°C
App
Temp
°C
Dew
Point
Rel
Hum
%
Delta-T
°C
Wind Press
QNH
hPa
Press
MSL
hPa
Rain
since 9 am
mm
Dir
 
Spd
km/h
Gust
km/h
Spd
kts
Gust
kts
24/11:30pm 13.7 10.2 5.4 57 3.9 SSW 13 20 7 11 1019.3 1019.2 0.0
24/11:00pm 14.3 10.7 4.8 53 4.4 SSW 13 20 7 11 1019.2 1019.1 0.0
24/10:30pm 15.0 10.1 3.9 47 5.1 SSW 19 28 10 15 1018.8 1018.7 0.0
24/10:00pm 15.6 10.7 4.2 46 5.3 SSW 19 28 10 15 1018.4 1018.3 0.0
24/09:30pm 16.3 11.1 3.8 43 5.8 SSW 20 32 11 17 1017.7 1017.6 0.0
24/09:00pm 16.8 11.3 4.2 43 5.9 SW 22 33 12 18 1017.1 1017.0 0.0
24/08:30pm 17.5 11.6 4.1 41 6.3 SSW 24 37 13 20 1016.5 1016.4 0.0
24/08:00pm 18.2 11.5 3.4 37 6.9 SSW 28 44 15 24 1015.7 1015.6 0.0
24/07:30pm 19.1 11.6 3.3 35 7.4 SW 32 46 17 25 1015.2 1015.1 0.0
24/07:07pm 20.0 13.4 4.2 35 7.6 SW 28 46 15 25 1014.7 1014.6 0.0
24/07:00pm 20.2 12.8 4.2 35 7.7 SSW 32 46 17 25 1014.5 1014.4 0.0
24/06:30pm 21.5 14.3 4.8 33 8.2 SW 32 50 17 27 1013.5 1013.4 0.0
24/06:11pm 21.8 14.1 5.3 34 8.2 SW 35 56 19 30 1013.0 1012.9 0.0
24/06:00pm 22.3 14.7 5.8 34 8.3 SW 35 52 19 28 1012.8 1012.7 0.0
24/05:30pm 23.1 16.3 7.6 37 8.1 SW 33 52 18 28 1012.1 1012.1 0.0
24/05:16pm 23.8 17.0 7.9 36 8.4 SW 33 56 18 30 1011.6 1011.6 0.0
24/05:00pm 22.7 16.1 8.6 40 7.5 SW 33 48 18 26 1011.7 1011.7 0.0
24/04:30pm 23.4 16.1 8.6 38 7.9 SSW 37 56 20 30 1011.3 1011.3 0.0
24/04:00pm 25.4 18.2 9.3 36 8.8 SW 37 56 20 30 1010.9 1010.9 0.0
24/03:51pm 25.1 18.0 9.6 37 8.5 SW 37 56 20 30 1010.7 1010.7 0.0
24/03:30pm 25.4 19.0 10.8 40 8.2 SW 35 48 19 26 1010.7 1010.7 0.0
24/03:10pm 25.7 19.5 9.3 35 9.0 SW 32 50 17 27 1010.2 1010.2 0.0
24/03:00pm 26.6 20.5 8.3 31 9.9 SW 30 44 16 24 1010.3 1010.3 0.0
24/02:30pm 26.4 19.9 8.0 31 9.9 SW 32 50 17 27 1010.1 1010.1 0.0
24/02:01pm 27.4 21.7 8.3 30 10.4 SW 28 48 15 26 1010.1 1010.1 0.0
24/02:00pm 27.1 21.4 8.3 30 10.2 SW 28 43 15 23 1010.1 1010.1 0.0
24/01:39pm 26.7 21.0 8.2 31 10.0 SW 28 46 15 25 1010.3 1010.3 0.0
24/01:30pm 26.3 20.3 8.6 32 9.6 WSW 30 44 16 24 1010.3 1010.3 0.0
24/01:16pm 26.4 20.5 9.1 33 9.5 SW 30 52 16 28 1010.4 1010.4 0.0
24/01:00pm 26.6 20.8 9.6 34 9.4 WSW 30 43 16 23 1010.1 1010.1 0.0
24/12:30pm 25.9 20.5 9.6 35 9.0 SW 28 39 15 21 1010.3 1010.3 0.0
24/12:02pm 24.8 20.0 11.8 44 7.4 SW 28 46 15 25 1010.3 1010.3 0.0
24/12:00pm 24.5 19.0 11.8 45 7.2 SW 32 46 17 25 1010.3 1010.3 0.0
24/11:30am 22.5 17.4 11.9 51 6.0 WSW 30 41 16 22 1010.4 1010.4 0.0
24/11:00am 23.9 19.0 12.6 49 6.5 SW 30 46 16 25 1010.3 1010.3 0.0
24/10:58am 24.1 19.7 12.8 49 6.5 SW 28 46 15 25 1010.4 1010.4 0.0
24/10:30am 25.3 20.6 10.7 40 8.2 SW 26 39 14 21 1010.1 1010.1 0.0
24/10:00am 25.8 21.0 10.4 38 8.6 WSW 26 35 14 19 1009.8 1009.8 0.0
24/09:30am 27.2 23.8 12.4 40 8.6 WSW 22 32 12 17 1009.2 1009.2 0.0
24/09:00am 28.8 26.2 15.0 43 8.4 NNW 22 35 12 19 1009.2 1009.2 0.2
24/08:30am 28.0 24.5 15.4 46 7.7 NNW 28 43 15 23 1009.2 1009.2 0.2
24/08:00am 26.8 24.4 15.5 50 6.9 NNW 22 32 12 17 1009.2 1009.2 0.2
24/07:30am 25.2 23.2 15.5 55 5.9 NNW 20 30 11 16 1008.7 1008.7 0.2
24/07:00am 24.1 22.5 14.9 56 5.5 N 17 26 9 14 1007.8 1007.8 0.2
24/06:30am 23.1 21.2 14.1 57 5.3 N 17 24 9 13 1006.9 1006.9 0.2
24/06:00am 22.0 20.8 14.0 60 4.7 NNE 13 20 7 11 1006.5 1006.4 0.2
24/05:30am 19.0 19.0 15.1 78 2.3 NE 9 13 5 7 1006.7 1006.7 0.2
24/05:00am 17.8 19.7 15.8 88 1.2 CALM 0 0 0 0 1006.7 1006.7 0.2
24/04:30am 18.4 20.4 16.1 86 1.4 CALM 0 0 0 0 1007.0 1007.0 0.2
24/04:00am 19.0 21.1 16.2 84 1.7 CALM 0 0 0 0 1007.5 1007.5 0.2
24/03:30am 18.8 20.3 15.8 83 1.8 ENE 2 6 1 3 1007.5 1007.5 0.2
24/03:00am 19.1 19.9 14.8 76 2.5 NNW 4 7 2 4 1008.1 1008.1 0.2
24/02:30am 19.8 20.9 14.5 71 3.1 WSW 2 7 1 4 1008.3 1008.3 0.2
24/02:00am 19.7 21.0 14.2 70 3.2 CALM 0 0 0 0 1008.3 1008.3 0.2
24/01:30am 19.5 20.9 14.5 73 2.9 CALM 0 0 0 0 1008.1 1008.1 0.2
24/01:00am 19.8 21.0 13.7 68 3.5 CALM 0 0 0 0 1008.4 1008.4 0.2
24/12:30am 20.2 20.1 13.2 64 4.0 NE 6 13 3 7 1009.1 1009.1 0.2
24/12:00am 19.0 20.3 14.1 73 2.8 CALM 0 0 0 0 1009.4 1009.4 0.2
 
Date/Time
CDT
Temp
°C
App
Temp
°C
Dew
Point
Rel
Hum
%
Delta-T
°C
Wind Press
QNH
hPa
Press
MSL
hPa
Rain
since 9 am
mm
Dir
 
Spd
km/h
Gust
km/h
Spd
kts
Gust
kts
23/11:30pm 20.1 19.6 12.7 62 4.2 ESE 7 9 4 5 1009.2 1009.2 0.2
23/11:00pm 20.3 18.9 12.3 60 4.5 SE 11 13 6 7 1008.7 1008.7 0.2
23/10:30pm 19.8 19.3 12.7 63 4.0 SE 7 17 4 9 1008.6 1008.6 0.2
23/10:00pm 20.9 19.2 12.6 59 4.7 SE 13 17 7 9 1009.1 1009.1 0.2
23/09:30pm 20.4 19.8 13.4 64 4.0 SE 9 13 5 7 1009.3 1009.3 0.2
23/09:00pm 20.8 20.9 14.5 67 3.7 SE 7 9 4 5 1009.5 1009.5 0.2
23/08:30pm 22.6 21.2 13.3 55 5.4 ESE 13 15 7 8 1009.1 1009.1 0.2
23/08:00pm 23.5 22.1 13.4 53 5.9 ESE 13 15 7 8 1009.2 1009.2 0.2
23/07:30pm 24.6 23.0 12.9 48 6.8 SE 13 17 7 9 1009.5 1009.5 0.2
23/07:00pm 25.5 22.1 11.2 40 8.1 E 20 30 11 16 1008.5 1008.5 0.2
23/06:30pm 24.6 23.4 13.9 51 6.3 ENE 13 17 7 9 1009.9 1009.9 0.2
23/06:00pm 25.3 26.2 16.5 58 5.4 E 7 13 4 7 1011.3 1011.3 0.2
23/05:30pm 25.2 21.7 13.4 48 6.9 NE 24 33 13 18 1010.9 1010.9 0.2
23/05:00pm 27.6 27.9 12.3 38 8.9 W 2 7 1 4 1011.3 1011.3 0.2
23/04:30pm 28.6 26.8 9.6 30 10.6 WSW 9 11 5 6 1010.8 1010.8 0.2
23/04:00pm 29.1 28.9 9.1 28 11.1 CALM 0 4 0 2 1010.6 1010.6 0.2
23/03:30pm 29.4 27.9 8.5 27 11.5 WNW 6 17 3 9 1011.2 1011.2 0.2
23/03:00pm 29.4 28.4 8.8 27 11.4 W 4 11 2 6 1011.3 1011.3 0.2
23/02:30pm 29.5 27.4 8.1 26 11.7 W 9 13 5 7 1011.5 1011.5 0.2
23/02:00pm 28.9 26.1 7.1 25 11.7 WSW 11 20 6 11 1011.6 1011.6 0.2
23/01:30pm 28.9 27.6 9.9 30 10.7 W 7 11 4 6 1011.4 1011.4 0.2
23/01:00pm 28.4 26.8 10.1 32 10.3 N 9 17 5 9 1011.8 1011.8 0.2
23/12:30pm 26.8 24.7 9.9 34 9.4 NNE 11 17 6 9 1012.2 1012.2 0.2
23/12:00pm 26.2 24.3 10.5 37 8.8 N 11 17 6 9 1012.3 1012.3 0.2
23/11:30am 25.5 24.6 11.4 41 8.0 N 7 13 4 7 1012.5 1012.5 0.2
23/11:00am 23.6 22.7 10.8 44 7.1 N 6 13 3 7 1012.9 1012.8 0.2
23/10:30am 22.4 21.2 11.7 50 6.0 SE 9 15 5 8 1013.0 1012.9 0.2
23/10:00am 21.1 20.6 12.2 56 5.0 ENE 6 11 3 6 1013.4 1013.3 0.2
23/09:30am 20.0 19.5 12.7 63 4.1 SSW 7 13 4 7 1013.8 1013.7 0.0
23/09:00am 18.5 17.2 12.4 67 3.4 SSE 11 15 6 8 1013.8 1013.7 3.6
23/08:30am 17.9 16.0 13.1 73 2.7 SSE 15 20 8 11 1013.5 1013.4 3.6
23/08:00am 17.0 15.6 13.5 80 2.0 S 13 19 7 10 1013.4 1013.3 3.6
23/07:30am 16.1 13.9 13.4 84 1.5 S 17 20 9 11 1012.6 1012.6 3.6
23/07:00am 15.2 14.9 13.4 89 1.0 S 7 13 4 7 1012.9 1012.8 3.6
23/06:30am 14.4 14.0 13.1 92 0.7 S 7 11 4 6 1012.3 1012.3 3.6
23/06:00am 14.0 12.5 13.1 94 0.5 SSW 13 20 7 11 1011.7 1011.7 3.6
23/05:30am 13.9 13.1 12.8 93 0.6 SSW 9 13 5 7 1011.6 1011.6 3.6
23/05:00am 14.4 13.3 13.1 92 0.7 SW 11 15 6 8 1012.0 1012.0 3.6
23/04:30am 14.4 14.0 12.9 91 0.8 WSW 7 9 4 5 1012.1 1012.1 3.6
23/04:00am 14.9 14.8 13.3 90 0.9 SSW 6 9 3 5 1011.7 1011.7 3.6
23/03:30am 15.4 14.7 13.1 86 1.3 SSW 9 15 5 8 1011.3 1011.3 3.6
23/03:00am 15.7 14.5 12.8 83 1.6 SSW 11 17 6 9 1010.9 1010.9 3.6
23/02:30am 16.1 14.6 11.9 76 2.3 SSW 11 13 6 7 1011.0 1011.0 3.6
23/02:00am 16.6 15.4 11.6 72 2.7 S 9 13 5 7 1011.1 1011.1 3.6
23/01:30am 17.2 15.2 11.5 69 3.1 S 13 19 7 10 1011.3 1011.3 3.6
23/01:00am 17.8 15.1 11.6 67 3.4 SSW 17 26 9 14 1011.3 1011.3 3.6
23/12:30am 18.2 15.6 12.1 67 3.4 SSW 17 26 9 14 1011.3 1011.3 3.6
23/12:00am 18.7 15.9 12.6 67 3.4 SSW 19 30 10 16 1011.2 1011.2 3.6
 
Date/Time
CDT
Temp
°C
App
Temp
°C
Dew
Point
Rel
Hum
%
Delta-T
°C
Wind Press
QNH
hPa
Press
MSL
hPa
Rain
since 9 am
mm
Dir
 
Spd
km/h
Gust
km/h
Spd
kts
Gust
kts
22/11:30pm 19.2 17.6 14.0 72 3.0 SSW 15 22 8 12 1010.9 1010.9 3.6
22/11:00pm 20.0 17.9 14.7 71 3.1 SW 19 28 10 15 1010.6 1010.6 3.6
22/10:30pm 21.3 18.6 15.6 70 3.4 SSW 24 33 13 18 1010.0 1010.0 3.6
22/10:00pm 22.7 21.3 16.5 68 3.8 SSW 19 35 10 19 1009.6 1009.6 3.6
22/09:30pm 24.1 22.7 16.6 63 4.6 S 19 28 10 15 1009.0 1009.0 3.6
22/09:00pm 24.5 24.0 15.8 58 5.3 S 13 19 7 10 1008.4 1008.4 3.6
22/08:30pm 25.3 24.8 14.8 52 6.3 SSE 11 13 6 7 1007.9 1007.9 3.6
22/08:00pm 26.0 25.0 14.7 49 6.8 S 13 17 7 9 1007.4 1007.4 3.6
22/07:30pm 27.5 24.6 12.9 40 8.6 SSE 20 26 11 14 1006.9 1006.9 3.6
22/07:00pm 28.1 25.2 12.8 38 9.0 SSE 20 28 11 15 1006.6 1006.6 3.6
22/06:30pm 28.1 24.5 13.0 39 8.9 SSE 24 35 13 19 1005.9 1005.8 3.6
22/06:00pm 29.0 25.6 12.5 36 9.7 SE 22 33 12 18 1005.9 1005.8 3.6
22/05:30pm 29.1 25.1 14.0 39 9.1 SSE 28 39 15 21 1005.7 1005.6 3.6
22/05:00pm 29.1 26.0 14.6 41 8.8 SE 24 32 13 17 1005.6 1005.5 3.6
22/04:30pm 29.9 26.2 13.8 37 9.7 ESE 26 35 14 19 1005.1 1005.0 3.6
22/04:00pm 29.0 26.9 15.1 42 8.5 SE 20 32 11 17 1005.7 1005.6 3.6
22/03:30pm 27.2 25.6 18.3 58 5.7 SSE 24 35 13 19 1006.1 1006.0 3.6
22/03:18pm 26.5 23.9 17.8 58 5.5 SSE 28 39 15 21 1006.2 1006.1 3.6
22/03:00pm 31.7 28.6 12.3 30 11.5 SSE 20 30 11 16 1006.4 1006.3 2.2
22/02:30pm 31.5 27.3 11.0 28 11.9 E 24 30 13 16 1005.7 1005.6 2.2
22/02:00pm 30.3 25.7 12.3 33 10.6 ESE 28 39 15 21 1006.0 1005.9 2.2
22/01:30pm 29.2 25.1 13.7 38 9.3 SE 28 39 15 21 1007.3 1007.3 2.2
22/01:00pm 29.7 27.3 12.6 35 10.1 SE 17 26 9 14 1008.3 1008.3 2.2
22/12:30pm 27.9 25.8 14.7 44 8.0 ESE 19 26 10 14 1008.1 1008.1 2.2
22/12:00pm 26.0 21.9 12.8 44 7.7 E 26 35 14 19 1008.2 1008.2 2.2
22/11:30am 23.5 22.5 15.5 60 4.8 SE 15 17 8 9 1009.5 1009.5 2.2
22/11:00am 20.1 17.9 15.0 72 3.0 E 20 22 11 12 1008.9 1008.9 2.2
22/10:30am 23.8 22.2 10.2 42 7.5 SE 9 13 5 7 1010.8 1010.8 0.0
22/10:00am 23.5 21.8 10.0 42 7.4 S 9 15 5 8 1010.7 1010.7 0.0
22/09:30am 24.0 22.0 6.9 33 8.9 S 7 9 4 5 1010.2 1010.2 0.0

Other Formats:

Comma delimited format used in spreadsheet applications
http://www.bom.gov.au/fwo/IDS60801/IDS60801.94682.axf

JavaScript Object Notation format (JSON) in row-major order
http://www.bom.gov.au/fwo/IDS60801/IDS60801.94682.json